Welcome to Northern Hawkes Bay. New Zealand.
PWS Header
      nz Flag



Hit Counter


W3C Valid W3C Valid logo


    Wairoa

Select any of the Stations below to visit their websites.










Historic Data from Weather Underground
Select the location of interest below. Wairoa is the default. Please have patience, this Data is slow to load in.
Northern Hawkes Bay Historical Data
Daily Summary for January 4, 2017 Units:  English    Metric   Both
« Previous Day
Next Day »
Daily Weekly Monthly Yearly Custom
  High: Low: Average:
Temperature: 76.1 °F 51.8 °F 68.2 °F
Dew Point: 59.2 °F 43.9 °F 54.3 °F
Humidity: 86% 42% 62%
Wind Speed: 23.5mph 0mph 7.5mph
Wind Gust: 36.5mph - -
Wind- - WSW
Pressure: 30 in 29.6 in -
Precipitation: 0.01 in    
Historical Graphs
 
 
Tabular Data for January 4, 2017
Time Temperature Dew Point Pressure Wind Wind Speed Wind Gust Humidity Rainfall Rate (Hourly) solar
00:02 71.6 °F 58.5 °F 29.6 in NNW 3.1 mph 9.2 mph 63% 0 in 0 W/m2
00:07 71.4 °F 58.6 °F 29.7 in NNW 3.1 mph 7.6 mph 64% 0 in 0 W/m2
00:12 71.8 °F 58.5 °F 29.7 in NNW 6.9 mph 12.1 mph 63% 0 in 0 W/m2
00:17 71.4 °F 58.6 °F 29.7 in NNW 6.9 mph 12.1 mph 64% 0 in 0 W/m2
00:23 71.4 °F 58.3 °F 29.6 in NNW 7.6 mph 13.6 mph 63% 0 in 0 W/m2
00:28 71.8 °F 58.1 °F 29.6 in NNW 3.8 mph 13.6 mph 62% 0 in 0 W/m2
00:33 71.1 °F 57.9 °F 29.7 in North 3.8 mph 9.8 mph 63% 0 in 0 W/m2
00:38 71.1 °F 57.9 °F 29.7 in NNW 3.8 mph 9.8 mph 63% 0 in 0 W/m2
00:44 70.3 °F 57.6 °F 29.6 in NNW 3.8 mph 9.8 mph 64% 0 in 0 W/m2
00:49 70.3 °F 57.9 °F 29.7 in North 2.2 mph 6.9 mph 65% 0 in 0 W/m2
00:54 69.6 °F 57.7 °F 29.6 in North 3.8 mph 9.2 mph 66% 0 in 0 W/m2
00:59 70.3 °F 57.2 °F 29.6 in North 6.9 mph 13 mph 63% 0 in 0 W/m2
01:04 70.3 °F 56.7 °F 29.6 in North 4.5 mph 13 mph 62% 0 in 0 W/m2
01:09 70.5 °F 56.8 °F 29.7 in NNW 3.8 mph 9.2 mph 62% 0 in 0 W/m2
01:14 70.2 °F 56.7 °F 29.6 in NNW 3.8 mph 9.2 mph 62% 0 in 0 W/m2
01:19 70.2 °F 56.7 °F 29.6 in NNW 5.4 mph 8.3 mph 62% 0 in 0 W/m2
01:24 70.2 °F 56.7 °F 29.6 in NNW 2.2 mph 8.3 mph 62% 0 in 0 W/m2
01:29 69.8 °F 56.1 °F 29.6 in NNW 3.1 mph 8.3 mph 62% 0 in 0 W/m2
01:34 69.4 °F 56.8 °F 29.6 in NNW 2.2 mph 6 mph 64% 0 in 0 W/m2
01:39 68.9 °F 57 °F 29.7 in North 1.6 mph 6 mph 66% 0 in 0 W/m2
01:44 68.5 °F 57.2 °F 29.7 in North 2.2 mph 6 mph 67% 0 in 0 W/m2
01:49 68.4 °F 57.4 °F 29.6 in North 3.8 mph 6 mph 68% 0 in 0 W/m2
01:54 68.2 °F 57.2 °F 29.6 in North 2.2 mph 6 mph 68% 0 in 0 W/m2
01:59 68.4 °F 57 °F 29.6 in NNW 4.5 mph 12.1 mph 67% 0 in 0 W/m2
02:04 68.7 °F 56.8 °F 29.6 in NNW 7.6 mph 12.1 mph 66% 0 in 0 W/m2
02:09 69.3 °F 57 °F 29.6 in North 4.5 mph 11.4 mph 65% 0 in 0 W/m2
02:14 68.9 °F 56.7 °F 29.6 in North 3.8 mph 11.4 mph 65% 0 in 0 W/m2
02:19 68.7 °F 56.5 °F 29.6 in North 5.4 mph 10.7 mph 65% 0 in 0 W/m2
02:24 68.7 °F 56.5 °F 29.6 in NNW 6.9 mph 13.6 mph 65% 0 in 0 W/m2
02:29 69.1 °F 56.8 °F 29.6 in NNW 6 mph 13.6 mph 65% 0 in 0 W/m2
02:34 68.7 °F 56.1 °F 29.6 in North 6 mph 12.1 mph 64% 0 in 0 W/m2
02:39 68.7 °F 56.1 °F 29.6 in North 4.5 mph 12.1 mph 64% 0 in 0 W/m2
02:44 68.4 °F 56.1 °F 29.6 in North 5.4 mph 11.4 mph 65% 0 in 0 W/m2
02:49 68.7 °F 56.5 °F 29.6 in North 4.5 mph 10.7 mph 65% 0 in 0 W/m2
02:54 68 °F 55.8 °F 29.6 in North 5.4 mph 10.7 mph 65% 0 in 0 W/m2
02:59 67.6 °F 56.3 °F 29.6 in NNW 3.8 mph 8.3 mph 67% 0 in 0 W/m2
03:04 67.5 °F 56.1 °F 29.6 in NNW 2.2 mph 8.3 mph 67% 0 in 0 W/m2
03:09 66.6 °F 55.2 °F 29.6 in NNW 0.7 mph 6 mph 67% 0 in 0 W/m2
03:14 66.4 °F 55.6 °F 29.6 in NW 2.2 mph 3.8 mph 68% 0 in 0 W/m2
03:19 65.8 °F 56.1 °F 29.6 in NW 2.2 mph 5.4 mph 71% 0 in 0 W/m2
03:24 65.5 °F 55.8 °F 29.6 in NW 0.7 mph 5.4 mph 71% 0 in 0 W/m2
03:30 64.9 °F 55.8 °F 29.6 in Calm   4.5 mph 72% 0 in 0 W/m2
03:35 64.8 °F 55.9 °F 29.6 in NNW 0.7 mph 4.5 mph 73% 0 in 0 W/m2
03:40 64.6 °F 56.1 °F 29.6 in NNW 3.1 mph 4.5 mph 74% 0 in 0 W/m2
03:45 64.4 °F 55.9 °F 29.6 in NNW 3.1 mph 4.5 mph 74% 0 in 0 W/m2
03:50 64.6 °F 56.1 °F 29.6 in NNW 2.2 mph 4.5 mph 74% 0 in 0 W/m2
03:55 65.1 °F 56.3 °F 29.6 in NNW 3.1 mph 6.9 mph 73% 0 in 0 W/m2
04:00 65.7 °F 56.5 °F 29.6 in NNW 4.5 mph 9.2 mph 72% 0 in 0 W/m2
04:05 65.7 °F 55.6 °F 29.6 in NW 3.1 mph 9.8 mph 70% 0 in 0 W/m2
04:10 66.4 °F 55.9 °F 29.6 in NW 4.5 mph 9.8 mph 69% 0 in 0 W/m2
04:15 66.2 °F 55.8 °F 29.6 in NW 2.2 mph 7.6 mph 69% 0 in 0 W/m2
04:20 66.6 °F 55.8 °F 29.6 in NW 5.4 mph 13 mph 68% 0 in 0 W/m2
04:25 66.6 °F 55.2 °F 29.6 in NNW 4.5 mph 13 mph 67% 0 in 0 W/m2
04:30 67.3 °F 55.9 °F 29.6 in NNW 4.5 mph 12.1 mph 67% 0 in 0 W/m2
04:36 66.7 °F 55.6 °F 29.6 in NNW 5.4 mph 9.8 mph 67% 0 in 0 W/m2
04:41 66.9 °F 55.9 °F 29.6 in NNW 4.5 mph 9.8 mph 68% 0 in 0 W/m2
04:46 66.2 °F 55.2 °F 29.6 in NW 4.5 mph 8.3 mph 68% 0 in 0 W/m2
04:51 65.8 °F 55.8 °F 29.6 in NW 4.5 mph 7.6 mph 70% 0 in 0 W/m2
04:56 65.3 °F 55.8 °F 29.6 in NW 5.4 mph 7.6 mph 71% 0 in 0 W/m2
05:01 65.5 °F 55.8 °F 29.6 in NW 5.4 mph 9.2 mph 71% 0 in 0 W/m2
05:06 65.3 °F 55.8 °F 29.6 in NW 3.1 mph 9.2 mph 71% 0 in 0 W/m2
05:11 65.5 °F 55.8 °F 29.6 in NW 4.5 mph 9.8 mph 71% 0 in 0 W/m2
05:16 66.2 °F 55.2 °F 29.6 in NNW 9.8 mph 12.1 mph 68% 0 in 0 W/m2
05:21 66.6 °F 55.2 °F 29.6 in NNW 5.4 mph 13.6 mph 67% 0 in 0 W/m2
05:26 66.7 °F 55 °F 29.6 in NNW 6 mph 15.2 mph 66% 0 in 0 W/m2
05:31 66.7 °F 55 °F 29.6 in NNW 6.9 mph 15.2 mph 66% 0 in 0 W/m2
05:36 67.5 °F 55.2 °F 29.6 in NW 6.9 mph 14.5 mph 65% 0 in 0 W/m2
05:41 68.2 °F 55 °F 29.6 in NW 9.2 mph 15.2 mph 63% 0 in 0 W/m2
05:46 68.2 °F 54.7 °F 29.6 in NW 6 mph 15.2 mph 62% 0 in 2 W/m2
05:51 68 °F 55 °F 29.6 in NW 10.7 mph 14.5 mph 63% 0 in 4 W/m2
05:56 67.8 °F 55.2 °F 29.6 in NNW 5.4 mph 13.6 mph 64% 0 in 6 W/m2
06:01 67.5 °F 54.9 °F 29.6 in NNW 8.3 mph 13.6 mph 64% 0 in 10 W/m2
06:07 67.3 °F 54.7 °F 29.6 in NNW 7.6 mph 13 mph 64% 0 in 13 W/m2
06:12 67.5 °F 54.3 °F 29.6 in NW 6 mph 13 mph 63% 0 in 16 W/m2
06:17 67.6 °F 54.1 °F 29.6 in NW 5.4 mph 12.1 mph 62% 0 in 19 W/m2
06:22 67.5 °F 54.3 °F 29.6 in NNW 8.3 mph 12.1 mph 63% 0 in 22 W/m2
06:27 68 °F 53.6 °F 29.6 in NW 6.9 mph 13.6 mph 60% 0 in 26 W/m2
06:32 68.4 °F 53.1 °F 29.6 in NW 8.3 mph 15.2 mph 58% 0 in 29 W/m2
06:37 68.5 °F 53.8 °F 29.6 in NW 6.9 mph 15.2 mph 59% 0 in 68 W/m2
06:42 68.9 °F 53.4 °F 29.6 in NW 8.3 mph 13 mph 58% 0 in 79 W/m2
06:47 69.3 °F 53.4 °F 29.6 in NW 11.4 mph 15.9 mph 57% 0 in 89 W/m2
06:52 69.6 °F 53.8 °F 29.6 in NNW 6 mph 15.9 mph 57% 0 in 96 W/m2
06:57 69.8 °F 52.9 °F 29.6 in NNW 7.6 mph 12.1 mph 55% 0 in 114 W/m2
07:02 70 °F 53.1 °F 29.6 in NNW 3.8 mph 12.1 mph 55% 0 in 125 W/m2
07:07 70.2 °F 53.2 °F 29.6 in NNW 9.2 mph 12.1 mph 55% 0 in 138 W/m2
07:12 70.2 °F 53.2 °F 29.6 in NW 6 mph 12.1 mph 55% 0 in 153 W/m2
07:17 70.3 °F 52.9 °F 29.6 in NW 10.7 mph 14.5 mph 54% 0 in 163 W/m2
07:22 70.3 °F 52.9 °F 29.6 in NNW 5.4 mph 14.5 mph 54% 0 in 178 W/m2
07:27 70.9 °F 52.9 °F 29.6 in NNW 7.6 mph 15.2 mph 53% 0 in 190 W/m2
07:32 71.2 °F 53.8 °F 29.7 in NNW 3.1 mph 15.2 mph 54% 0 in 202 W/m2
07:37 71.6 °F 53.1 °F 29.7 in NNW 1.6 mph 11.4 mph 52% 0 in 215 W/m2
07:42 72.3 °F 53.8 °F 29.7 in NW 2.2 mph 9.2 mph 52% 0 in 230 W/m2
07:47 72.5 °F 53.4 °F 29.7 in NW 4.5 mph 9.2 mph 51% 0 in 246 W/m2
07:52 72.9 °F 53.8 °F 29.7 in NW 4.5 mph 9.2 mph 51% 0 in 259 W/m2
07:57 73.2 °F 54 °F 29.7 in NW 3.8 mph 7.6 mph 51% 0 in 274 W/m2
08:02 73.4 °F 53.1 °F 29.7 in NW 3.1 mph 7.6 mph 49% 0 in 286 W/m2
08:07 73 °F 52.9 °F 29.7 in NNW 6 mph 11.4 mph 49% 0 in 299 W/m2
08:12 72.9 °F 52.5 °F 29.7 in NW 6 mph 15.9 mph 49% 0 in 318 W/m2
08:17 72.9 °F 53.2 °F 29.7 in NW 7.6 mph 15.9 mph 50% 0 in 328 W/m2
08:22 72.5 °F 52.3 °F 29.7 in NNW 9.2 mph 17.4 mph 49% 0 in 344 W/m2
08:27 72.7 °F 53.1 °F 29.7 in NNW 10.7 mph 17.4 mph 50% 0 in 362 W/m2
08:32 72.7 °F 51.3 °F 29.7 in NNW 9.8 mph 16.8 mph 47% 0 in 378 W/m2
08:37 72.7 °F 51.3 °F 29.7 in NW 9.8 mph 16.8 mph 47% 0 in 395 W/m2
08:54 73.2 °F 51.3 °F 29.7 in NW 6.9 mph 19 mph 46% 0 in 460 W/m2
08:59 74.1 °F 52.5 °F 29.7 in West 6.9 mph 13.6 mph 47% 0 in 472 W/m2
09:05 73.6 °F 51.6 °F 29.7 in NW 10.7 mph 16.8 mph 46% 0 in 502 W/m2
09:10 73.6 °F 51.6 °F 29.7 in NW 7.6 mph 16.8 mph 46% 0 in 515 W/m2
09:15 73.9 °F 52 °F 29.7 in NW 6 mph 16.8 mph 46% 0 in 535 W/m2
09:20 73.6 °F 51.6 °F 29.7 in NW 9.8 mph 18.3 mph 46% 0 in 550 W/m2
09:25 73.4 °F 51.4 °F 29.7 in NW 9.2 mph 18.3 mph 46% 0 in 580 W/m2
09:30 73.9 °F 52 °F 29.7 in NW 12.1 mph 20.6 mph 46% 0 in 610 W/m2
09:35 73.4 °F 50.7 °F 29.7 in WNW 8.3 mph 20.6 mph 45% 0 in 622 W/m2
09:40 73.6 °F 51.1 °F 29.7 in NW 13.6 mph 20.6 mph 45% 0 in 640 W/m2
09:45 74.1 °F 51.4 °F 29.7 in NW 5.4 mph 18.3 mph 45% 0 in 667 W/m2
09:50 74.7 °F 52 °F 29.7 in NW 6.9 mph 18.3 mph 45% 0 in 690 W/m2
09:55 74.7 °F 52 °F 29.7 in NW 7.6 mph 13.6 mph 45% 0 in 708 W/m2
10:00 74.3 °F 51.6 °F 29.7 in NW 9.2 mph 13.6 mph 45% 0 in 719 W/m2
10:05 74.7 °F 52.5 °F 29.7 in WNW 5.4 mph 14.5 mph 46% 0 in 738 W/m2
10:10 75 °F 51.6 °F 29.7 in NW 8.3 mph 14.5 mph 44% 0 in 755 W/m2
10:15 74.1 °F 51.4 °F 29.7 in NW 6.9 mph 17.4 mph 45% 0 in 764 W/m2
10:20 74.3 °F 51.6 °F 29.7 in NW 7.6 mph 17.4 mph 45% 0 in 780 W/m2
10:25 74.3 °F 51.1 °F 29.7 in NW 8.3 mph 13.6 mph 44% 0 in 796 W/m2
10:30 74.3 °F 51.6 °F 29.7 in NW 10.7 mph 14.5 mph 45% 0 in 804 W/m2
10:35 74.3 °F 51.6 °F 29.7 in NW 9.8 mph 19 mph 45% 0 in 822 W/m2
10:40 74.3 °F 52.2 °F 29.7 in NW 8.3 mph 19 mph 46% 0 in 833 W/m2
10:45 74.3 °F 51.6 °F 29.7 in NW 9.8 mph 15.2 mph 45% 0 in 842 W/m2
10:50 74.1 °F 51.4 °F 29.7 in NW 8.3 mph 16.8 mph 45% 0 in 864 W/m2
10:55 74.3 °F 51.6 °F 29.7 in NNW 6 mph 16.8 mph 45% 0 in 894 W/m2
11:00 75 °F 52.3 °F 29.7 in NNW 6.9 mph 16.8 mph 45% 0 in 970 W/m2
11:05 76.1 °F 52 °F 29.7 in NW 7.6 mph 14.5 mph 43% 0 in 948 W/m2
11:10 75.9 °F 51.3 °F 29.7 in NW 6 mph 10.7 mph 42% 0 in 957 W/m2
11:15 75.7 °F 53.4 °F 29.7 in WNW 5.4 mph 12.1 mph 46% 0 in 965 W/m2
11:20 74.8 °F 55 °F 29.7 in West 2.2 mph 12.1 mph 50% 0 in 1000 W/m2
11:25 74.3 °F 54 °F 29.7 in SW 4.5 mph 12.1 mph 49% 0 in 978 W/m2
11:30 74.7 °F 55.4 °F 29.7 in SSW 6.9 mph 12.1 mph 51% 0 in 1066 W/m2
11:35 74.3 °F 54.5 °F 29.7 in SSW 8.3 mph 13 mph 50% 0 in 1075 W/m2
11:40 73.9 °F 53.1 °F 29.7 in SSW 9.8 mph 13.6 mph 48% 0 in 1026 W/m2
11:45 73.8 °F 55.6 °F 29.7 in SSW 6.9 mph 13.6 mph 53% 0 in 1057 W/m2
11:50 73.8 °F 54 °F 29.7 in SSW 8.3 mph 13 mph 50% 0 in 1061 W/m2
11:55 73 °F 54.9 °F 29.7 in SSW 6.9 mph 12.1 mph 53% 0 in 1072 W/m2
12:11 73 °F 54.3 °F 29.7 in SSW 9.2 mph 15.2 mph 52% 0 in 1004 W/m2
12:16 73.4 °F 53.1 °F 29.7 in SSW 10.7 mph 15.2 mph 49% 0 in 1019 W/m2
12:21 72.7 °F 54.7 °F 29.7 in SSW 6.9 mph 15.2 mph 53% 0 in 1027 W/m2
12:26 73.4 °F 54.1 °F 29.7 in SW 6.9 mph 13.6 mph 51% 0 in 998 W/m2
12:31 73.8 °F 52.9 °F 29.7 in SW 9.8 mph 14.5 mph 48% 0 in 996 W/m2
12:36 73.4 °F 53.8 °F 29.7 in SSW 5.4 mph 14.5 mph 50% 0 in 973 W/m2
12:41 74.1 °F 52.5 °F 29.7 in SSW 9.2 mph 13 mph 47% 0 in 968 W/m2
12:46 73.9 °F 52.5 °F 29.7 in SSW 8.3 mph 13 mph 47% 0 in 985 W/m2
12:51 73.2 °F 54 °F 29.7 in South 10.7 mph 13.6 mph 51% 0 in 964 W/m2
12:56 73.4 °F 52.5 °F 29.7 in South 7.6 mph 13.6 mph 48% 0 in 955 W/m2
13:01 73.9 °F 54.1 °F 29.7 in SSW 8.3 mph 13.6 mph 50% 0 in 960 W/m2
13:06 74.1 °F 54.3 °F 29.7 in SSW 6.9 mph 13 mph 50% 0 in 962 W/m2
13:11 73.4 °F 55.8 °F 29.7 in South 6.9 mph 12.1 mph 54% 0 in 965 W/m2
13:16 72.7 °F 54.1 °F 29.7 in South 8.3 mph 11.4 mph 52% 0 in 950 W/m2
13:21 73.2 °F 52.3 °F 29.7 in South 7.6 mph 11.4 mph 48% 0 in 946 W/m2
13:26 73.6 °F 55.9 °F 29.7 in South 0.7 mph 11.4 mph 54% 0 in 946 W/m2
13:31 75.2 °F 53.1 °F 29.7 in South 5.4 mph 11.4 mph 46% 0 in 946 W/m2
13:36 74.3 °F 52.9 °F 29.7 in SSE 3.8 mph 10.7 mph 47% 0 in 938 W/m2
13:41 74.1 °F 52 °F 29.7 in South 4.5 mph 9.8 mph 46% 0 in 933 W/m2
13:46 75.2 °F 54.9 °F 29.7 in South 4.5 mph 9.8 mph 49% 0 in 928 W/m2
13:51 75.7 °F 54.1 °F 29.7 in SSE 3.1 mph 9.2 mph 47% 0 in 925 W/m2
13:56 75.9 °F 55.4 °F 29.7 in SE 6.9 mph 9.8 mph 49% 0 in 928 W/m2
14:01 75.6 °F 56.7 °F 29.7 in SE 6 mph 10.7 mph 52% 0 in 884 W/m2
14:06 73.8 °F 57.6 °F 29.7 in SSE 6.9 mph 15.2 mph 57% 0 in 201 W/m2
14:11 72.1 °F 55.6 °F 29.7 in SSE 5.4 mph 15.2 mph 56% 0 in 881 W/m2
14:17 73.2 °F 56.7 °F 29.7 in ESE 6 mph 13 mph 56% 0 in 885 W/m2
14:22 72.9 °F 56.8 °F 29.7 in SE 4.5 mph 12.1 mph 57% 0 in 874 W/m2
14:27 72.9 °F 58.6 °F 29.7 in SE 5.4 mph 12.1 mph 61% 0 in 869 W/m2
14:32 72.3 °F 56.3 °F 29.7 in SE 6.9 mph 13.6 mph 57% 0 in 862 W/m2
14:37 72 °F 56.8 °F 29.7 in SSE 6.9 mph 13.6 mph 59% 0 in 535 W/m2
14:42 71.4 °F 59.2 °F 29.7 in SSE 3.8 mph 10.7 mph 65% 0 in 859 W/m2
14:47 71.8 °F 59 °F 29.7 in SE 6.9 mph 11.4 mph 64% 0 in 829 W/m2
14:52 71.6 °F 57.6 °F 29.7 in SE 6 mph 11.4 mph 61% 0 in 827 W/m2
14:57 72 °F 58.3 °F 29.7 in SSE 6 mph 11.4 mph 62% 0 in 815 W/m2
15:02 72.1 °F 57.9 °F 29.7 in SSE 7.6 mph 11.4 mph 61% 0 in 811 W/m2
15:07 71.4 °F 58.6 °F 29.7 in SSE 6.9 mph 15.2 mph 64% 0 in 802 W/m2
15:12 71.1 °F 58.3 °F 29.7 in SE 5.4 mph 15.2 mph 64% 0 in 790 W/m2
15:17 71.4 °F 58.3 °F 29.7 in SE 4.5 mph 13 mph 63% 0 in 775 W/m2
15:22 72.1 °F 58.5 °F 29.7 in SSE 6 mph 11.4 mph 62% 0 in 766 W/m2
15:27 71.6 °F 58.5 °F 29.7 in SE 5.4 mph 11.4 mph 63% 0 in 754 W/m2
15:32 71.6 °F 57.9 °F 29.7 in SSE 6.9 mph 12.1 mph 62% 0 in 745 W/m2
15:37 71.2 °F 57.9 °F 29.7 in SSE 6 mph 12.1 mph 63% 0 in 731 W/m2
15:42 71.4 °F 58.6 °F 29.7 in SSE 7.6 mph 12.1 mph 64% 0 in 721 W/m2
15:47 72.3 °F 57.7 °F 29.7 in SSE 5.4 mph 10.7 mph 60% 0 in 708 W/m2
15:52 72.3 °F 58.6 °F 29.7 in SE 3.1 mph 10.7 mph 62% 0 in 698 W/m2
15:57 72.5 °F 57.9 °F 29.7 in SE 6 mph 9.2 mph 60% 0 in 691 W/m2
16:02 71.8 °F 57.6 °F 29.7 in SSE 4.5 mph 12.1 mph 61% 0 in 676 W/m2
16:07 71.8 °F 58.1 °F 29.7 in SSE 5.4 mph 12.1 mph 62% 0 in 662 W/m2
16:12 72.1 °F 58.5 °F 29.7 in SE 8.3 mph 14.5 mph 62% 0 in 654 W/m2
16:17 71.8 °F 58.1 °F 29.7 in SE 6.9 mph 14.5 mph 62% 0 in 643 W/m2
16:22 70.9 °F 57.7 °F 29.7 in SE 6.9 mph 13.6 mph 63% 0 in 637 W/m2
16:28 71.2 °F 57.9 °F 29.7 in SE 3.8 mph 11.4 mph 63% 0 in 250 W/m2
16:33 70.2 °F 57 °F 29.7 in SSE 5.4 mph 11.4 mph 63% 0 in 626 W/m2
16:38 70.9 °F 57.7 °F 29.7 in SSE 3.8 mph 11.4 mph 63% 0 in 589 W/m2
16:43 72.3 °F 58.1 °F 29.7 in SSE 3.1 mph 11.4 mph 61% 0 in 575 W/m2
16:48 73 °F 57.4 °F 29.7 in SSE 3.1 mph 9.2 mph 58% 0 in 561 W/m2
16:53 72.5 °F 57.4 °F 29.7 in SE 4.5 mph 9.2 mph 59% 0 in 551 W/m2
16:58 72.5 °F 57.4 °F 29.7 in SE 5.4 mph 11.4 mph 59% 0 in 535 W/m2
17:03 72.9 °F 56.3 °F 29.7 in SE 3.8 mph 11.4 mph 56% 0 in 526 W/m2
17:08 73.8 °F 57 °F 29.7 in SE 5.4 mph 8.3 mph 56% 0 in 516 W/m2
17:13 73 °F 55.4 °F 29.7 in SE 3.8 mph 10.7 mph 54% 0 in 510 W/m2
17:18 73.6 °F 56.5 °F 29.7 in SSE 7.6 mph 11.4 mph 55% 0 in 423 W/m2
17:23 72.5 °F 54.9 °F 29.7 in SSE 6 mph 11.4 mph 54% 0 in 191 W/m2
17:28 70.9 °F 55.9 °F 29.7 in SE 4.5 mph 10.7 mph 59% 0 in 584 W/m2
17:33 72.3 °F 57.7 °F 29.7 in SE 4.5 mph 10.7 mph 60% 0 in 541 W/m2
17:38 72.9 °F 57.7 °F 29.7 in ESE 4.5 mph 10.7 mph 59% 0 in 460 W/m2
17:43 72.7 °F 57.9 °F 29.7 in ESE 5.4 mph 10.7 mph 60% 0 in 437 W/m2
17:48 72.5 °F 57.4 °F 29.7 in SE 7.6 mph 12.1 mph 59% 0 in 428 W/m2
17:53 71.8 °F 57.6 °F 29.7 in SSE 5.4 mph 12.1 mph 61% 0 in 426 W/m2
17:58 72 °F 57.7 °F 29.7 in SE 5.4 mph 9.8 mph 61% 0 in 116 W/m2
18:03 70 °F 57.4 °F 29.7 in SSE 5.4 mph 9.8 mph 64% 0 in 126 W/m2
18:08 68.7 °F 57.4 °F 29.7 in SSE 4.5 mph 13 mph 67% 0 in 158 W/m2
18:13 68.5 °F 57.2 °F 29.7 in SSE 4.5 mph 13 mph 67% 0 in 137 W/m2
18:18 68.4 °F 56.7 °F 29.7 in SE 5.4 mph 11.4 mph 66% 0 in 121 W/m2
18:23 67.5 °F 56.7 °F 29.7 in ESE 6.9 mph 11.4 mph 68% 0 in 107 W/m2
18:28 67.1 °F 57 °F 29.7 in ESE 6 mph 10.7 mph 70% 0 in 122 W/m2
18:33 66.9 °F 57.2 °F 29.7 in SSE 2.2 mph 9.2 mph 71% 0 in 83 W/m2
18:38 66.7 °F 56.7 °F 29.7 in SSE 3.8 mph 9.8 mph 70% 0 in 74 W/m2
18:43 66.6 °F 56.8 °F 29.7 in SE 3.8 mph 9.8 mph 71% 0 in 61 W/m2
18:48 66.6 °F 56.5 °F 29.7 in SE 4.5 mph 10.7 mph 70% 0 in 68 W/m2
18:53 66.6 °F 56.8 °F 29.7 in SE 4.5 mph 10.7 mph 71% 0 in 101 W/m2
18:58 66.4 °F 57 °F 29.7 in SSE 6 mph 9.2 mph 72% 0 in 72 W/m2
19:03 66.2 °F 56.5 °F 29.7 in SSE 2.2 mph 9.2 mph 71% 0 in 71 W/m2
19:08 66.4 °F 56.7 °F 29.7 in SSE 1.6 mph 7.6 mph 71% 0 in 182 W/m2
19:13 67.3 °F 56.8 °F 29.7 in SSE 2.2 mph 6.9 mph 69% 0 in 64 W/m2
19:19 66.7 °F 56.3 °F 29.7 in SSE 5.4 mph 9.8 mph 69% 0 in 83 W/m2
19:24 66.7 °F 57 °F 29.7 in South 3.1 mph 9.8 mph 71% 0 in 167 W/m2
19:29 68.7 °F 57.4 °F 29.7 in SSE 2.2 mph 6 mph 67% 0 in 163 W/m2
19:34 69.1 °F 56.5 °F 29.8 in SSE 5.4 mph 7.6 mph 64% 0 in 127 W/m2
19:39 69.4 °F 56.8 °F 29.8 in SSE 3.1 mph 7.6 mph 64% 0 in 124 W/m2
19:44 69.6 °F 56.8 °F 29.8 in SE 2.2 mph 7.6 mph 64% 0 in 111 W/m2
19:49 69.8 °F 56.7 °F 29.8 in SE 1.6 mph 6 mph 63% 0 in 103 W/m2
19:54 69.1 °F 56.5 °F 29.8 in SSE 2.2 mph 7.6 mph 64% 0 in 49 W/m2
19:59 67.8 °F 56.5 °F 29.8 in South 1.6 mph 8.3 mph 67% 0 in 41 W/m2
20:04 67.6 °F 57 °F 29.8 in South 1.6 mph 8.3 mph 69% 0 in 26 W/m2
20:09 65.3 °F 54.9 °F 29.8 in SSE 18.3 mph 26.6 mph 69% 0 in 16 W/m2
20:14 60.4 °F 53.2 °F 29.8 in South 16.8 mph 32.7 mph 77% 0 in 17 W/m2
20:19 59.2 °F 53.4 °F 29.8 in SSW 19 mph 34.2 mph 81% 0 in 14 W/m2
20:24 58.6 °F 53.8 °F 29.8 in SSW 19 mph 34.2 mph 84% 0 in 9 W/m2
20:29 58.3 °F 53.4 °F 29.8 in SSW 16.8 mph 34.2 mph 84% 0 in 4 W/m2
20:34 57.9 °F 52.9 °F 29.8 in SSW 18.3 mph 30.4 mph 83% 0 in 4 W/m2
20:39 57.9 °F 52.5 °F 29.8 in South 22.8 mph 30.4 mph 82% 0 in 1 W/m2
20:44 57.6 °F 51.4 °F 29.8 in South 22.1 mph 34.2 mph 80% 0 in 0 W/m2
20:49 57.6 °F 51.4 °F 29.8 in SSW 19 mph 34.2 mph 80% 0 in 0 W/m2
20:55 57.4 °F 50.5 °F 29.9 in South 22.1 mph 33.6 mph 78% 0 in 0 W/m2
21:00 57.4 °F 51.6 °F 29.9 in SSW 20.6 mph 33.6 mph 81% 0 in 0 W/m2
21:06 56.7 °F 52 °F 29.9 in SSW 19.7 mph 30.4 mph 84% 0 in 0 W/m2
21:11 56.3 °F 50.5 °F 29.9 in SSW 15.9 mph 36.5 mph 81% 0 in 0 W/m2
21:16 56.1 °F 50 °F 29.9 in SSW 16.8 mph 36.5 mph 80% 0 in 0 W/m2
21:21 56.3 °F 50.2 °F 29.9 in SSW 13 mph 32 mph 80% 0 in 0 W/m2
21:26 56.1 °F 49.5 °F 29.9 in SSW 12.1 mph 31.1 mph 78% 0 in 0 W/m2
21:31 56.3 °F 49.5 °F 29.9 in SSW 11.4 mph 28.9 mph 78% 0 in 0 W/m2
21:36 56.3 °F 49.5 °F 29.9 in SSW 19 mph 27.3 mph 78% 0 in 0 W/m2
21:41 56.1 °F 50 °F 29.9 in SSW 16.8 mph 27.3 mph 80% 0 in 0 W/m2
21:46 55.9 °F 49.3 °F 29.9 in SSW 10.7 mph 26.6 mph 78% 0 in 0 W/m2
21:51 55.9 °F 49.5 °F 29.9 in SSW 19.7 mph 30.4 mph 79% 0 in 0 W/m2
21:56 55.8 °F 48.9 °F 29.9 in SSW 14.5 mph 30.4 mph 78% 0 in 0 W/m2
22:01 55.6 °F 48.7 °F 29.9 in SSW 18.3 mph 31.1 mph 78% 0 in 0 W/m2
22:06 55.2 °F 48 °F 29.9 in SSW 23.5 mph 34.2 mph 77% 0 in 0 W/m2
22:11 55.4 °F 48.7 °F 29.9 in SW 19 mph 34.2 mph 78% 0 in 0 W/m2
22:16 55.4 °F 48.4 °F 29.9 in SSW 15.9 mph 33.6 mph 77% 0 in 0 W/m2
22:21 55 °F 47.7 °F 29.9 in SSW 16.8 mph 33.6 mph 76% 0 in 0 W/m2
22:26 54.9 °F 48 °F 29.9 in SW 15.9 mph 30.4 mph 78% 0 in 0 W/m2
22:32 54.9 °F 47.1 °F 29.9 in SSW 17.4 mph 29.8 mph 75% 0 in 0 W/m2
22:37 54.5 °F 47.1 °F 29.9 in SSW 19.7 mph 29.8 mph 76% 0 in 0 W/m2
22:42 54.7 °F 47.3 °F 30 in SW 19 mph 31.1 mph 76% 0 in 0 W/m2
22:47 53.4 °F 48.9 °F 30 in SSW 19.7 mph 32 mph 85% 0 in 0 W/m2
22:52 52.3 °F 48.4 °F 30 in SSW 19.7 mph 32 mph 86% 0.01 in 0 W/m2
22:57 52.5 °F 47.8 °F 30 in SW 22.1 mph 31.1 mph 84% 0.01 in 0 W/m2
23:02 52.9 °F 47.8 °F 30 in SSW 15.9 mph 31.1 mph 83% 0.01 in 0 W/m2
23:07 52.9 °F 46.9 °F 30 in SW 12.1 mph 29.8 mph 80% 0.01 in 0 W/m2
23:12 53.2 °F 47.8 °F 30 in SW 15.9 mph 29.8 mph 82% 0.01 in 0 W/m2
23:17 53.4 °F 48.4 °F 30 in SSW 15.2 mph 26.6 mph 83% 0.01 in 0 W/m2
23:22 52.9 °F 47.1 °F 30 in South 22.1 mph 31.1 mph 81% 0.01 in 0 W/m2
23:27 51.8 °F 45.1 °F 30 in SSW 18.3 mph 31.1 mph 78% 0.01 in 0 W/m2
23:32 52 °F 45 °F 30 in SSW 14.5 mph 28.2 mph 77% 0.01 in 0 W/m2
23:37 52.3 °F 44.8 °F 30 in SW 8.3 mph 24.4 mph 75% 0.01 in 0 W/m2
23:42 52.3 °F 44.2 °F 30 in SW 11.4 mph 22.8 mph 74% 0.01 in 0 W/m2
23:47 52.5 °F 43.9 °F 30 in WSW 13 mph 22.8 mph 72% 0.01 in 0 W/m2
23:52 52.9 °F 44.1 °F 30 in SW 7.6 mph 19.7 mph 72% 0 in 0 W/m2
23:57 52.9 °F 44.1 °F 30 in SW 8.3 mph 19.7 mph 72% 0 in 0 W/m2
Northern Hawkes Bay. New Zealand Historic Data
Compliments of Weather Underground - 2 mb